Huvudsida
METAR-TAF:

METAR-TAF

Flygplatser :

Genèves internationella flygplats

Genève, Schweiz

latitud: 46-15N, longitud: 006-08E, höjd: 420 m

Aktuellt väderrapport

Denna rapport gjordes för 39 minuter sedan, klockan 14:50 UTC
Vind 7 kt varierande vindriktning
Temperatur 32°C
Fuktighet 32%
Tryck 1021 hPa
Sikt 10 km eller mer
Få moln på en höjd av 6000 ft

METAR: LSGG 211450Z VRB07KT 9999 FEW060 32/13 Q1021 NOSIG

Tid: 17:29 (15:29 UTC)

Väderprognos

Denna rapport gjordes för 1 timme och 4 minuter sedan, klockan 14:25 UTC
Prognos gäller från 21 kl. 15 UTC till 22 kl. 21 UTC
Vind 7 kt från sydväst
Sikt 10 km eller mer
Få moln på en höjd av 5000 ft
Blir
från 21 kl. 18 UTC till 21 kl. 20 UTC
Vind 3 kt varierande vindriktning
Sikt 10 km eller mer
Inga moln under 1 500 m eller inga cumulonimbus
Blir
från 22 kl. 10 UTC till 22 kl. 12 UTC
Vind 7 kt från nordost

TAF: LSGG 211425Z 2115/2221 23007KT 9999 FEW050 TX32/2115Z TN16/2204Z TX32/2215Z BECMG 2118/2120 VRB03KT CAVOK BECMG 2210/2212 05007KT

Aktuella väderrapporter och prognoser från 4000 flygplatser (METAR- och TAF-rapporter).

De tillgängliga stationerna syns som gula och röda prickar på kartan.

För musen över prickarna för att se namnen på stationerna.

Klicka sedan för att få väderrapporter och prognoser.

För att ändra kartan: Klicka på de gröna knapparna med ett svart kors på för att zooma in; den gröna knappen med ett streck på för att zooma ut; eller på de gröna pilarna för angränsande kartor.


METAR-TAF: